createdAt,value
2022-07-25T00:02:23.034Z,5.22
2022-07-25T00:04:52.215Z,5.22
2022-07-25T00:07:21.756Z,5.47
2022-07-25T00:09:48.722Z,5.40
2022-07-25T00:12:20.704Z,5.38
2022-07-25T00:14:48.221Z,4.85
2022-07-25T00:17:17.529Z,5.07
2022-07-25T00:19:44.511Z,5.72
2022-07-25T00:22:14.002Z,5.53
2022-07-25T00:24:40.919Z,5.55
2022-07-25T00:27:08.414Z,5.10
2022-07-25T00:29:36.020Z,5.18
2022-07-25T00:32:05.899Z,5.50
2022-07-25T00:34:35.064Z,5.82
2022-07-25T00:37:04.384Z,5.43
2022-07-25T00:39:35.722Z,5.55
2022-07-25T00:42:06.166Z,5.35
2022-07-25T00:44:38.423Z,5.72
2022-07-25T00:47:10.965Z,5.70
2022-07-25T00:49:37.872Z,5.72
2022-07-25T00:52:05.356Z,5.35
2022-07-25T00:54:34.896Z,5.43
2022-07-25T00:57:02.169Z,6.10
2022-07-25T00:59:29.331Z,5.22
2022-07-25T01:01:58.853Z,4.78
2022-07-25T01:04:25.817Z,5.22
2022-07-25T01:06:52.673Z,5.13
2022-07-25T01:09:21.380Z,5.47
2022-07-25T01:11:48.604Z,5.63
2022-07-25T01:14:15.483Z,5.75
2022-07-25T01:16:42.399Z,5.43
2022-07-25T01:19:09.372Z,5.28
2022-07-25T01:21:43.225Z,5.15
2022-07-25T01:24:11.235Z,5.85
2022-07-25T01:26:38.732Z,5.93
2022-07-25T01:29:06.057Z,5.57
2022-07-25T01:31:33.094Z,5.47
2022-07-25T01:34:00.035Z,5.55
2022-07-25T01:36:27.061Z,5.50
2022-07-25T01:38:54.140Z,5.50
2022-07-25T01:41:22.607Z,6.50
2022-07-25T01:43:54.449Z,5.38
2022-07-25T01:46:21.380Z,5.53
2022-07-25T01:48:50.796Z,4.90
2022-07-25T01:51:20.370Z,4.88
2022-07-25T01:53:52.686Z,5.18
2022-07-25T01:56:25.180Z,5.35
2022-07-25T01:58:52.052Z,4.97
2022-07-25T02:01:19.518Z,5.18
2022-07-25T02:03:51.035Z,5.68
2022-07-25T02:06:20.875Z,5.72
2022-07-25T02:08:52.454Z,5.10
2022-07-25T02:11:19.420Z,5.50
2022-07-25T02:13:46.721Z,5.60
2022-07-25T02:16:16.094Z,5.68
2022-07-25T02:18:48.511Z,5.47
2022-07-25T02:21:17.751Z,5.65
2022-07-25T02:23:45.090Z,5.70
2022-07-25T02:26:15.269Z,5.55
2022-07-25T02:28:42.299Z,5.45
2022-07-25T02:31:09.651Z,6.03
2022-07-25T02:33:37.536Z,5.63
2022-07-25T02:36:07.757Z,5.43
2022-07-25T02:38:34.910Z,6.00
2022-07-25T02:41:04.404Z,6.18
2022-07-25T02:43:31.506Z,5.90
2022-07-25T02:45:58.450Z,5.38
2022-07-25T02:48:25.436Z,5.28
2022-07-25T02:50:52.413Z,5.30
2022-07-25T02:53:34.232Z,5.47
2022-07-25T02:56:06.603Z,5.28
2022-07-25T02:58:36.533Z,5.63
2022-07-25T03:01:06.464Z,5.25
2022-07-25T03:03:33.547Z,5.63
2022-07-25T03:06:03.204Z,5.82
2022-07-25T03:08:32.189Z,5.20
2022-07-25T03:10:59.162Z,5.60
2022-07-25T03:13:28.607Z,5.75
2022-07-25T03:15:56.179Z,5.25
2022-07-25T03:18:26.092Z,6.18
2022-07-25T03:20:53.023Z,5.25
2022-07-25T03:23:19.901Z,5.55
2022-07-25T03:25:46.849Z,5.72
2022-07-25T03:28:16.737Z,6.32
2022-07-25T03:30:46.199Z,5.43
2022-07-25T03:33:13.070Z,5.45
2022-07-25T03:35:40.163Z,6.18
2022-07-25T03:38:09.114Z,5.70
2022-07-25T03:40:38.290Z,5.82
2022-07-25T03:43:05.462Z,5.63
2022-07-25T03:45:32.511Z,6.03
2022-07-25T03:48:02.144Z,5.93
2022-07-25T03:50:31.725Z,5.57
2022-07-25T03:53:01.117Z,6.05
2022-07-25T03:55:28.127Z,5.18
2022-07-25T03:57:55.028Z,5.47
2022-07-25T04:00:21.990Z,5.63
2022-07-25T04:02:51.257Z,5.13
2022-07-25T04:05:22.803Z,5.30
2022-07-25T04:10:16.530Z,4.95
2022-07-25T04:12:43.499Z,5.38
2022-07-25T04:15:10.612Z,5.35
2022-07-25T04:17:38.885Z,5.43
2022-07-25T04:20:07.556Z,4.85
2022-07-25T04:22:35.333Z,6.07
2022-07-25T04:25:06.182Z,6.53
2022-07-25T04:27:33.254Z,5.72
2022-07-25T04:30:02.676Z,5.90
2022-07-25T04:32:31.773Z,5.53
2022-07-25T04:34:58.686Z,5.70
2022-07-25T04:37:25.994Z,6.13
2022-07-25T04:39:52.900Z,6.40
2022-07-25T04:42:24.405Z,5.65
2022-07-25T04:49:52.345Z,4.80
2022-07-25T04:52:19.284Z,5.10
2022-07-25T04:54:51.141Z,5.95
2022-07-25T04:57:20.874Z,6.30
2022-07-25T04:59:50.059Z,5.70
2022-07-25T05:02:16.965Z,5.88
2022-07-25T05:04:45.546Z,5.63
2022-07-25T05:07:12.660Z,6.20
2022-07-25T05:09:39.972Z,6.43
2022-07-25T05:12:11.767Z,5.68
2022-07-25T05:14:41.306Z,5.72
2022-07-25T05:17:08.262Z,5.65
2022-07-25T05:19:35.265Z,5.75
2022-07-25T05:22:02.542Z,6.72
2022-07-25T05:24:29.462Z,6.60
2022-07-25T05:26:58.581Z,6.07
2022-07-25T05:31:55.130Z,5.97
2022-07-25T05:34:22.121Z,6.32
2022-07-25T05:36:49.070Z,6.65
2022-07-25T05:39:18.957Z,6.57
2022-07-25T05:41:46.028Z,6.80
2022-07-25T05:44:12.917Z,6.80
2022-07-25T05:46:44.437Z,6.95
2022-07-25T05:49:11.467Z,8.18
2022-07-25T05:51:38.442Z,8.18
2022-07-25T05:54:08.152Z,6.88
2022-07-25T05:56:35.307Z,7.05
2022-07-25T05:59:02.220Z,6.97
2022-07-25T06:01:34.420Z,6.63
2022-07-25T06:04:01.632Z,6.88
2022-07-25T06:06:30.605Z,6.82
2022-07-25T06:08:57.495Z,6.90
2022-07-25T06:11:30.636Z,7.15
2022-07-25T06:13:58.367Z,7.30
2022-07-25T06:16:28.071Z,6.75
2022-07-25T06:18:55.005Z,7.13
2022-07-25T06:21:21.956Z,5.90
2022-07-25T06:23:48.873Z,6.97
2022-07-25T06:26:18.317Z,7.10
2022-07-25T06:28:47.168Z,7.32
2022-07-25T06:31:14.119Z,7.53
2022-07-25T06:33:45.626Z,6.72
2022-07-25T06:36:12.601Z,6.85
2022-07-25T06:38:39.550Z,8.25
2022-07-25T06:41:13.376Z,6.97
2022-07-25T06:43:40.295Z,7.50
2022-07-25T06:46:07.247Z,7.88
2022-07-25T06:48:34.209Z,8.32
2022-07-25T06:51:03.774Z,8.32
2022-07-25T06:53:33.261Z,8.10
2022-07-25T06:56:02.282Z,8.13
2022-07-25T06:58:29.279Z,10.18
2022-07-25T07:00:56.271Z,9.27
2022-07-25T07:03:23.298Z,9.82
2022-07-25T07:05:50.265Z,9.00
2022-07-25T07:08:17.210Z,9.85
2022-07-25T07:10:44.095Z,8.45
2022-07-25T07:13:14.090Z,8.20
2022-07-25T07:15:50.224Z,7.95
2022-07-25T07:18:21.062Z,6.93
2022-07-25T07:20:51.735Z,7.13
2022-07-25T07:23:19.158Z,6.93
2022-07-25T07:25:47.518Z,7.55
2022-07-25T07:28:15.755Z,7.13
2022-07-25T07:31:14.472Z,7.18
2022-07-25T07:33:33.513Z,6.93
2022-07-25T07:36:03.896Z,6.75
2022-07-25T07:38:30.827Z,6.85
2022-07-25T07:40:57.863Z,7.07
2022-07-25T07:43:29.726Z,7.88
2022-07-25T07:46:00.878Z,6.65
2022-07-25T07:48:32.313Z,6.35
2022-07-25T07:51:01.444Z,6.55
2022-07-25T07:53:48.061Z,7.05
2022-07-25T07:56:16.292Z,6.32
2022-07-25T07:58:45.674Z,7.00
2022-07-25T08:01:12.670Z,6.28
2022-07-25T08:03:41.730Z,6.60
2022-07-25T08:06:11.752Z,6.00
2022-07-25T08:08:39.063Z,7.25
2022-07-25T08:11:08.295Z,5.65
2022-07-25T08:13:36.296Z,5.80
2022-07-25T08:16:03.928Z,6.32
2022-07-25T08:18:35.484Z,6.20
2022-07-25T08:21:08.635Z,6.18
2022-07-25T08:23:39.174Z,6.55
2022-07-25T08:28:33.540Z,5.38
2022-07-25T08:31:00.709Z,6.32
2022-07-25T08:33:28.353Z,6.15
2022-07-25T08:36:01.246Z,6.25
2022-07-25T08:38:29.046Z,6.40
2022-07-25T08:41:02.859Z,6.07
2022-07-25T08:43:35.863Z,6.50
2022-07-25T08:46:05.408Z,6.47
2022-07-25T08:48:32.812Z,6.18
2022-07-25T08:51:02.711Z,6.00
2022-07-25T08:53:33.183Z,6.10
2022-07-25T08:56:09.945Z,5.93
2022-07-25T08:58:41.405Z,5.60
2022-07-25T09:01:09.116Z,6.72
2022-07-25T09:03:36.592Z,6.35
2022-07-25T09:06:15.430Z,6.20
2022-07-25T09:08:58.640Z,6.07
2022-07-25T09:11:39.856Z,6.30
2022-07-25T09:14:14.989Z,6.30
2022-07-25T09:16:48.000Z,6.50
2022-07-25T09:19:21.350Z,6.45
2022-07-25T09:22:05.549Z,5.97
2022-07-25T09:24:35.156Z,6.07
2022-07-25T09:27:12.001Z,6.25
2022-07-25T09:29:43.656Z,7.13
2022-07-25T09:32:20.344Z,6.18
2022-07-25T09:34:49.995Z,6.25
2022-07-25T09:37:22.597Z,6.43
2022-07-25T09:39:51.898Z,6.05
2022-07-25T09:42:28.866Z,6.13
2022-07-25T09:45:14.536Z,5.80
2022-07-25T09:47:51.093Z,5.25
2022-07-25T09:50:19.738Z,5.18
2022-07-25T09:52:47.351Z,6.25
2022-07-25T09:55:15.676Z,5.75
2022-07-25T09:57:45.081Z,5.60
2022-07-25T10:00:19.259Z,5.57
2022-07-25T10:02:55.345Z,5.78
2022-07-25T10:05:47.237Z,5.22
2022-07-25T10:08:14.470Z,5.10
2022-07-25T10:10:42.583Z,5.15
2022-07-25T10:13:15.254Z,5.38
2022-07-25T10:15:51.729Z,5.15
2022-07-25T10:18:25.796Z,4.72
2022-07-25T10:21:24.516Z,4.90
2022-07-25T10:24:10.475Z,4.63
2022-07-25T10:26:40.332Z,4.78
2022-07-25T10:29:11.998Z,4.97
2022-07-25T10:31:50.986Z,4.60
2022-07-25T10:34:31.693Z,5.10
2022-07-25T10:37:18.101Z,4.90
2022-07-25T10:39:48.722Z,4.68
2022-07-25T10:44:51.312Z,3.90
2022-07-25T10:47:24.024Z,4.50
2022-07-25T10:50:25.674Z,4.20
2022-07-25T10:52:59.070Z,4.05
2022-07-25T10:55:31.491Z,4.53
2022-07-25T10:58:17.446Z,4.28
2022-07-25T11:00:47.499Z,4.38
2022-07-25T11:03:18.531Z,4.13
2022-07-25T11:05:51.681Z,4.47
2022-07-25T11:08:22.062Z,4.45
2022-07-25T11:10:54.525Z,3.97
2022-07-25T11:13:21.652Z,4.03
2022-07-25T11:15:48.802Z,4.28
2022-07-25T11:18:18.363Z,3.55
2022-07-25T11:20:48.299Z,3.45
2022-07-25T11:23:22.088Z,4.15
2022-07-25T11:25:51.578Z,4.03
2022-07-25T11:28:18.495Z,4.07
2022-07-25T11:30:45.479Z,3.80
2022-07-25T11:33:17.802Z,3.35
2022-07-25T11:35:47.279Z,3.42
2022-07-25T11:38:14.810Z,3.85
2022-07-25T11:40:47.430Z,3.78
2022-07-25T11:43:25.831Z,3.70
2022-07-25T11:46:09.134Z,3.47
2022-07-25T11:48:41.079Z,3.92
2022-07-25T11:51:18.904Z,4.07
2022-07-25T11:53:49.747Z,3.60
2022-07-25T11:56:44.219Z,3.63
2022-07-25T11:59:08.435Z,3.65
2022-07-25T12:01:41.329Z,2.92
2022-07-25T12:04:12.548Z,2.50
2022-07-25T12:06:47.205Z,2.20
2022-07-25T12:09:22.189Z,2.22
2022-07-25T12:11:52.005Z,2.15
2022-07-25T12:14:21.141Z,2.35
2022-07-25T12:16:48.138Z,2.38
2022-07-25T12:19:22.836Z,2.45
2022-07-25T12:21:49.734Z,2.33
2022-07-25T12:24:16.703Z,2.75
2022-07-25T12:26:43.654Z,2.35
2022-07-25T12:29:10.945Z,2.75
2022-07-25T12:31:40.472Z,2.90
2022-07-25T12:34:11.970Z,2.80
2022-07-25T12:36:43.964Z,2.88
2022-07-25T12:39:13.765Z,2.70
2022-07-25T12:41:43.111Z,3.00
2022-07-25T12:44:12.285Z,2.85
2022-07-25T12:46:47.167Z,3.42
2022-07-25T12:49:16.285Z,3.25
2022-07-25T12:51:45.787Z,3.08
2022-07-25T12:54:22.285Z,3.10
2022-07-25T12:56:50.655Z,2.83
2022-07-25T12:59:20.677Z,3.60
2022-07-25T13:01:48.272Z,3.10
2022-07-25T13:04:17.698Z,3.35
2022-07-25T13:06:44.811Z,3.22
2022-07-25T13:09:16.205Z,3.40
2022-07-25T13:11:43.087Z,3.25
2022-07-25T13:14:10.099Z,3.42
2022-07-25T13:16:39.696Z,3.42
2022-07-25T13:19:09.489Z,3.60
2022-07-25T13:21:37.484Z,3.83
2022-07-25T13:24:05.349Z,3.90
2022-07-25T13:26:32.318Z,3.60
2022-07-25T13:29:00.238Z,3.67
2022-07-25T13:31:27.311Z,3.55
2022-07-25T13:33:54.861Z,3.47
2022-07-25T13:36:24.243Z,3.97
2022-07-25T13:38:53.259Z,3.63
2022-07-25T13:41:23.376Z,3.67
2022-07-25T13:43:50.338Z,3.85
2022-07-25T13:46:18.077Z,4.00
2022-07-25T13:48:45.105Z,3.88
2022-07-25T13:51:14.714Z,3.90
2022-07-25T13:53:41.720Z,3.90
2022-07-25T13:56:08.705Z,3.75
2022-07-25T13:58:35.705Z,4.22
2022-07-25T14:01:02.834Z,4.07
2022-07-25T14:03:30.078Z,4.15
2022-07-25T14:05:58.242Z,4.38
2022-07-25T14:08:27.799Z,4.05
2022-07-25T14:10:54.768Z,4.05
2022-07-25T14:13:21.675Z,4.18
2022-07-25T14:15:48.627Z,3.92
2022-07-25T14:18:15.780Z,4.50
2022-07-25T14:20:42.715Z,3.95
2022-07-25T14:23:09.727Z,4.38
2022-07-25T14:25:38.040Z,4.55
2022-07-25T14:28:05.172Z,4.18
2022-07-25T14:30:32.222Z,4.68
2022-07-25T14:33:02.074Z,4.50
2022-07-25T14:35:32.568Z,4.60
2022-07-25T14:38:00.002Z,4.22
2022-07-25T14:40:31.788Z,4.43
2022-07-25T14:42:58.735Z,3.92
2022-07-25T14:45:25.724Z,3.75
2022-07-25T14:47:52.689Z,4.47
2022-07-25T14:50:19.666Z,4.20
2022-07-25T14:52:49.628Z,3.97
2022-07-25T14:55:16.640Z,3.73
2022-07-25T14:57:45.271Z,4.15
2022-07-25T15:00:12.972Z,3.90
2022-07-25T15:02:40.492Z,4.30
2022-07-25T15:05:08.050Z,4.60
2022-07-25T15:07:37.094Z,4.55
2022-07-25T15:10:06.887Z,4.72
2022-07-25T15:12:38.325Z,4.20
2022-07-25T15:15:06.497Z,4.47
2022-07-25T15:17:36.203Z,4.03
2022-07-25T15:20:06.433Z,4.18
2022-07-25T15:22:33.589Z,3.80
2022-07-25T15:25:45.029Z,4.68
2022-07-25T15:27:53.330Z,3.97
2022-07-25T15:30:27.319Z,4.18
2022-07-25T15:32:56.141Z,4.50
2022-07-25T15:35:25.693Z,4.22
2022-07-25T15:37:53.042Z,4.15
2022-07-25T15:40:20.019Z,4.10
2022-07-25T15:42:46.996Z,3.97
2022-07-25T15:45:32.366Z,4.05
2022-07-25T15:48:03.704Z,4.10
2022-07-25T15:50:33.554Z,3.70
2022-07-25T15:53:00.606Z,3.67
2022-07-25T15:55:27.659Z,3.88
2022-07-25T15:57:58.282Z,4.18
2022-07-25T16:00:29.785Z,4.00
2022-07-25T16:02:58.206Z,3.85
2022-07-25T16:05:26.464Z,4.85
2022-07-25T16:07:53.449Z,4.57
2022-07-25T16:10:22.901Z,4.53
2022-07-25T16:12:49.814Z,4.80
2022-07-25T16:15:19.887Z,4.15
2022-07-25T16:17:53.386Z,4.80
2022-07-25T16:20:20.530Z,4.18
2022-07-25T16:22:49.044Z,4.20
2022-07-25T16:25:16.100Z,3.88
2022-07-25T16:27:43.205Z,4.18
2022-07-25T16:30:10.838Z,4.50
2022-07-25T16:32:37.749Z,4.43
2022-07-25T16:35:05.371Z,4.35
2022-07-25T16:37:32.720Z,4.85
2022-07-25T16:39:59.589Z,4.45
2022-07-25T16:42:26.557Z,4.50
2022-07-25T16:44:53.490Z,4.50
2022-07-25T16:47:22.669Z,4.57
2022-07-25T16:49:49.579Z,4.88
2022-07-25T16:52:16.862Z,4.60
2022-07-25T16:54:44.364Z,4.65
2022-07-25T16:57:13.835Z,5.70
2022-07-25T16:59:40.772Z,4.65
2022-07-25T17:02:10.533Z,4.60
2022-07-25T17:04:37.770Z,4.40
2022-07-25T17:07:04.986Z,4.40
2022-07-25T17:09:32.098Z,4.93
2022-07-25T17:11:59.023Z,4.45
2022-07-25T17:14:30.789Z,4.75
2022-07-25T17:16:57.948Z,4.53
2022-07-25T17:19:27.484Z,4.60
2022-07-25T17:21:54.424Z,4.38
2022-07-25T17:24:21.408Z,4.72
2022-07-25T17:26:50.396Z,4.63
2022-07-25T17:29:17.321Z,4.25
2022-07-25T17:31:44.297Z,4.13
2022-07-25T17:34:11.322Z,4.45
2022-07-25T17:36:40.955Z,4.15
2022-07-25T17:39:10.460Z,4.60
2022-07-25T17:41:37.595Z,4.05
2022-07-25T17:44:09.963Z,4.57
2022-07-25T17:46:38.802Z,4.60
2022-07-25T17:49:05.827Z,4.90
2022-07-25T17:51:32.733Z,4.72
2022-07-25T17:53:59.676Z,4.80
2022-07-25T17:56:26.755Z,4.72
2022-07-25T17:58:53.881Z,4.90
2022-07-25T18:01:20.815Z,4.32
2022-07-25T18:03:47.854Z,4.93
2022-07-25T18:06:14.923Z,5.07
2022-07-25T18:08:41.990Z,4.88
2022-07-25T18:11:08.882Z,4.75
2022-07-25T18:13:35.825Z,4.85
2022-07-25T18:16:05.262Z,4.95
2022-07-25T18:18:33.040Z,4.32
2022-07-25T18:21:00.195Z,4.93
2022-07-25T18:23:30.672Z,4.28
2022-07-25T18:25:57.663Z,4.88
2022-07-25T18:28:25.116Z,4.38
2022-07-25T18:30:55.074Z,4.45
2022-07-25T18:33:22.128Z,3.70
2022-07-25T18:35:51.466Z,4.18
2022-07-25T18:38:18.642Z,4.60
2022-07-25T18:41:06.565Z,4.10
2022-07-25T18:46:05.837Z,3.50
2022-07-25T18:48:33.791Z,3.55
2022-07-25T18:51:03.357Z,3.53
2022-07-25T18:53:32.578Z,3.78
2022-07-25T18:56:03.133Z,3.83
2022-07-25T18:58:30.100Z,4.22
2022-07-25T19:00:57.021Z,3.75
2022-07-25T19:03:24.371Z,3.72
2022-07-25T19:05:51.453Z,3.55
2022-07-25T19:08:18.423Z,3.33
2022-07-25T19:10:45.620Z,3.38
2022-07-25T19:13:39.222Z,3.22
2022-07-25T19:16:02.483Z,3.88
2022-07-25T19:18:29.694Z,3.42
2022-07-25T19:20:56.689Z,3.40
2022-07-25T19:23:23.678Z,3.08
2022-07-25T19:25:51.698Z,3.33
2022-07-25T19:28:21.267Z,3.30
2022-07-25T19:30:48.465Z,3.13
2022-07-25T19:33:15.510Z,3.40
2022-07-25T19:35:44.760Z,3.85
2022-07-25T19:38:11.866Z,3.08
2022-07-25T19:40:38.873Z,3.20
2022-07-25T19:43:05.793Z,3.28
2022-07-25T19:45:32.734Z,3.30
2022-07-25T19:48:02.397Z,3.25
2022-07-25T19:50:29.353Z,3.38
2022-07-25T19:53:00.930Z,3.25
2022-07-25T19:55:28.863Z,3.15
2022-07-25T19:57:55.814Z,3.05
2022-07-25T20:00:23.685Z,3.65
2022-07-25T20:02:52.930Z,3.47
2022-07-25T20:05:20.501Z,3.55
2022-07-25T20:07:47.469Z,2.92
2022-07-25T20:10:17.730Z,3.42
2022-07-25T20:12:47.406Z,3.40
2022-07-25T20:15:16.706Z,3.47
2022-07-25T20:17:43.699Z,3.33
2022-07-25T20:20:11.395Z,3.00
2022-07-25T20:22:41.991Z,2.95
2022-07-25T20:25:12.897Z,2.80
2022-07-25T20:27:39.975Z,2.45
2022-07-25T20:30:09.903Z,2.95
2022-07-25T20:32:39.975Z,3.00
2022-07-25T20:35:09.550Z,2.72
2022-07-25T20:37:36.544Z,2.80
2022-07-25T20:40:07.667Z,2.45
2022-07-25T20:42:36.824Z,2.40
2022-07-25T20:45:07.722Z,2.50
2022-07-25T20:47:34.680Z,2.67
2022-07-25T20:50:04.599Z,2.70
2022-07-25T20:52:33.276Z,2.70
2022-07-25T20:55:00.356Z,2.60
2022-07-25T20:57:27.266Z,2.65
2022-07-25T20:59:54.323Z,2.60
2022-07-25T21:02:21.304Z,2.95
2022-07-25T21:04:48.721Z,2.42
2022-07-25T21:07:20.838Z,2.75
2022-07-25T21:09:49.984Z,2.40
2022-07-25T21:12:21.440Z,2.83
2022-07-25T21:14:48.434Z,2.70
2022-07-25T21:17:15.537Z,2.63
2022-07-25T21:19:44.730Z,2.60
2022-07-25T21:22:24.598Z,2.72
2022-07-25T21:24:53.820Z,1.75
2022-07-25T21:27:23.288Z,2.08
2022-07-25T21:29:52.773Z,1.90
2022-07-25T21:32:21.411Z,2.00
2022-07-25T21:34:49.814Z,2.10
2022-07-25T21:37:16.882Z,2.25
2022-07-25T21:39:44.032Z,1.90
2022-07-25T21:42:11.758Z,2.00
2022-07-25T21:44:46.098Z,1.75
2022-07-25T21:47:13.353Z,2.22
2022-07-25T21:50:01.680Z,1.70
2022-07-25T21:52:34.419Z,1.83
2022-07-25T21:55:03.827Z,2.00
2022-07-25T21:57:31.653Z,2.00
2022-07-25T22:00:00.945Z,2.00
2022-07-25T22:02:29.919Z,1.85
2022-07-25T22:04:59.049Z,2.05
2022-07-25T22:07:28.659Z,1.90
2022-07-25T22:09:58.122Z,1.92
2022-07-25T22:12:25.098Z,1.88
2022-07-25T22:14:52.103Z,1.50
2022-07-25T22:17:19.019Z,1.95
2022-07-25T22:19:48.256Z,1.58
2022-07-25T22:22:16.084Z,1.50
2022-07-25T22:24:46.379Z,1.90
2022-07-25T22:27:14.169Z,1.88
2022-07-25T22:29:41.447Z,1.50
2022-07-25T22:32:10.680Z,1.83
2022-07-25T22:34:37.678Z,1.75
2022-07-25T22:37:04.683Z,1.90
2022-07-25T22:39:36.182Z,1.45
2022-07-25T22:42:05.608Z,1.50
2022-07-25T22:44:34.765Z,1.70
2022-07-25T22:47:01.773Z,1.70
2022-07-25T22:49:30.957Z,1.50
2022-07-25T22:51:57.861Z,1.50
2022-07-25T22:54:24.903Z,1.67
2022-07-25T22:56:56.513Z,1.48
2022-07-25T22:59:23.644Z,1.38
2022-07-25T23:01:50.723Z,1.83
2022-07-25T23:04:20.754Z,1.70
2022-07-25T23:06:47.690Z,1.60
2022-07-25T23:09:17.124Z,1.48
2022-07-25T23:11:44.093Z,1.40
2022-07-25T23:14:11.246Z,1.90
2022-07-25T23:16:40.689Z,1.60
2022-07-25T23:19:08.192Z,1.50
2022-07-25T23:21:37.547Z,1.55
2022-07-25T23:24:06.384Z,2.00
2022-07-25T23:26:33.357Z,1.67
2022-07-25T23:29:02.722Z,1.50
2022-07-25T23:31:29.689Z,1.52
2022-07-25T23:33:58.930Z,1.67
2022-07-25T23:36:28.065Z,1.88
2022-07-25T23:38:54.930Z,1.45
2022-07-25T23:41:24.085Z,1.48
2022-07-25T23:43:59.176Z,1.90
2022-07-25T23:46:29.642Z,1.50
2022-07-25T23:49:00.917Z,1.80
2022-07-25T23:51:30.519Z,1.80
2022-07-25T23:54:00.167Z,1.92
2022-07-25T23:56:27.227Z,1.73
2022-07-25T23:58:54.408Z,1.67
